TimeEST,TemperatureF,Dew PointF,Humidity,Sea Level PressureIn,VisibilityMPH,Wind Direction,Wind SpeedMPH,Gust SpeedMPH,PrecipitationIn,Events,Conditions,WindDirDegrees,DateUTC
12:06 AM,42.8,37.4,81,30.29,10.0,NNE,4.6,-,N/A,,Scattered Clouds,30,2013-01-04 05:06:00
12:33 AM,42.8,37.4,81,30.29,10.0,Calm,Calm,-,N/A,,Mostly Cloudy,0,2013-01-04 05:33:00
12:53 AM,42.1,37.9,85,30.30,10.0,North,4.6,-,N/A,,Mostly Cloudy,360,2013-01-04 05:53:00
1:50 AM,41.0,37.4,87,30.31,10.0,NNE,4.6,-,N/A,,Scattered Clouds,20,2013-01-04 06:50:00
1:53 AM,41.0,37.0,86,30.31,10.0,NNE,4.6,-,N/A,,Partly Cloudy,20,2013-01-04 06:53:00
2:53 AM,37.9,36.0,93,30.30,6.0,Calm,Calm,-,N/A,,Clear,0,2013-01-04 07:53:00
3:17 AM,37.4,35.6,93,30.30,1.5,Calm,Calm,-,N/A,,Clear,0,2013-01-04 08:17:00
3:28 AM,35.6,33.8,93,30.31,3.0,Calm,Calm,-,N/A,,Clear,0,2013-01-04 08:28:00
3:53 AM,35.1,34.0,96,30.31,5.0,Calm,Calm,-,N/A,,Clear,0,2013-01-04 08:53:00
4:53 AM,34.0,32.0,92,30.30,5.0,Calm,Calm,-,N/A,,Clear,0,2013-01-04 09:53:00
5:03 AM,33.8,30.2,87,30.30,1.8,Calm,Calm,-,N/A,,Scattered Clouds,0,2013-01-04 10:03:00
5:07 AM,33.8,30.2,87,30.30,0.8,Calm,Calm,-,N/A,,Mist,0,2013-01-04 10:07:00
5:17 AM,33.8,33.8,100,30.30,2.5,Calm,Calm,-,N/A,,Mostly Cloudy,0,2013-01-04 10:17:00
5:24 AM,33.8,33.8,100,30.30,5.0,Calm,Calm,-,N/A,,Overcast,0,2013-01-04 10:24:00
5:53 AM,35.1,33.1,92,30.31,5.0,Calm,Calm,-,N/A,,Overcast,0,2013-01-04 10:53:00
6:44 AM,35.6,33.8,93,30.33,4.0,Calm,Calm,-,N/A,,Scattered Clouds,0,2013-01-04 11:44:00
6:53 AM,36.0,35.1,97,30.33,4.0,Calm,Calm,-,N/A,,Partly Cloudy,0,2013-01-04 11:53:00
7:14 AM,33.8,33.8,100,30.33,2.5,Calm,Calm,-,N/A,,Partly Cloudy,0,2013-01-04 12:14:00
7:22 AM,33.8,32.0,93,30.33,2.5,Calm,Calm,-,N/A,,Mostly Cloudy,0,2013-01-04 12:22:00
7:27 AM,32.0,30.2,93,30.34,2.5,Calm,Calm,-,N/A,,Partly Cloudy,0,2013-01-04 12:27:00
7:53 AM,34.0,32.0,92,30.34,2.5,Calm,Calm,-,N/A,Fog,Patches of Fog,0,2013-01-04 12:53:00
8:00 AM,33.8,32.0,93,30.35,2.5,Calm,Calm,-,N/A,Fog,Patches of Fog,0,2013-01-04 13:00:00
8:53 AM,37.0,35.1,93,30.35,2.5,North,3.5,-,N/A,Fog,Patches of Fog,10,2013-01-04 13:53:00
9:00 AM,37.4,35.6,93,30.35,0.5,North,3.5,-,N/A,Fog,Patches of Fog,10,2013-01-04 14:00:00
9:18 AM,37.4,37.4,100,30.37,2.5,North,3.5,-,N/A,Fog,Patches of Fog,350,2013-01-04 14:18:00
9:37 AM,39.2,39.2,100,30.37,3.0,NNE,4.6,-,N/A,,Mostly Cloudy,30,2013-01-04 14:37:00
9:51 AM,39.2,37.4,93,30.37,4.0,North,4.6,-,N/A,,Scattered Clouds,360,2013-01-04 14:51:00
9:53 AM,39.9,37.9,93,30.37,4.0,NNE,4.6,-,N/A,,Partly Cloudy,20,2013-01-04 14:53:00
10:53 AM,46.9,37.0,68,30.38,6.0,Calm,Calm,-,N/A,,Haze,0,2013-01-04 15:53:00
11:53 AM,51.1,37.0,59,30.35,8.0,Calm,Calm,-,N/A,,Clear,0,2013-01-04 16:53:00
12:53 PM,52.0,34.0,50,30.32,10.0,Variable,3.5,-,N/A,,Clear,0,2013-01-04 17:53:00
1:53 PM,54.0,33.1,45,30.29,10.0,Calm,Calm,-,N/A,,Clear,0,2013-01-04 18:53:00
2:53 PM,55.9,34.0,44,30.27,10.0,SW,6.9,-,N/A,,Clear,230,2013-01-04 19:53:00
3:53 PM,55.9,33.1,42,30.27,10.0,WSW,8.1,-,N/A,,Clear,250,2013-01-04 20:53:00
4:53 PM,54.0,35.1,49,30.27,10.0,WSW,4.6,-,N/A,,Clear,240,2013-01-04 21:53:00
5:53 PM,48.9,35.1,59,30.29,10.0,West,5.8,-,N/A,,Clear,260,2013-01-04 22:53:00
6:53 PM,46.0,36.0,68,30.31,10.0,West,5.8,-,N/A,,Clear,260,2013-01-04 23:53:00
7:53 PM,45.0,37.0,74,30.32,10.0,WSW,5.8,-,N/A,,Clear,250,2013-01-05 00:53:00
8:53 PM,42.8,37.4,81,30.32,10.0,WSW,8.1,-,N/A,,Clear,250,2013-01-05 01:53:00
9:53 PM,42.8,35.6,76,30.34,10.0,West,5.8,-,N/A,,Clear,270,2013-01-05 02:53:00
10:53 PM,37.0,33.1,86,30.34,10.0,West,3.5,-,N/A,,Clear,270,2013-01-05 03:53:00
11:53 PM,34.0,30.0,85,30.35,10.0,West,3.5,-,N/A,,Clear,280,2013-01-05 04:53:00